Time;durP1;ratioP1;P1;durP2;ratioP2;P2;SDS_P1;SDS_P2;PMS_P1;PMS_P2;Temp;Humidity;BMP_temperature;BMP_pressure;BME280_temperature;BME280_humidity;BME280_pressure;Samples;Min_cycle;Max_cycle;Signal;HPM_P1;HPM_P2
2023/06/22 00:00:21;;;;;;;4.67;3.50;;;;;;;15.09;100.00;101444.78;4971422;28;20039;-86
2023/06/22 00:02:46;;;;;;;9.48;4.15;;;;;;;15.09;100.00;101444.78;4997232;28;20022;-86
2023/06/22 00:05:12;;;;;;;4.33;3.87;;;;;;;15.09;100.00;101448.28;4988508;28;20132;-86
2023/06/22 00:07:37;;;;;;;5.37;3.63;;;;;;;15.08;100.00;101453.88;4972284;28;20038;-87
2023/06/22 00:10:02;;;;;;;4.87;3.50;;;;;;;15.03;100.00;101451.69;4973750;28;20066;-86
2023/06/22 00:12:28;;;;;;;6.93;3.80;;;;;;;15.02;100.00;101450.00;4987230;28;20030;-85
2023/06/22 00:14:53;;;;;;;7.70;4.20;;;;;;;14.97;100.00;101444.31;4989239;28;20049;-86
2023/06/22 00:17:19;;;;;;;6.13;4.50;;;;;;;14.87;100.00;101430.25;4969557;28;20022;-86
2023/06/22 00:19:47;;;;;;;6.70;4.23;;;;;;;14.92;100.00;101439.47;4976393;28;20039;-86
2023/06/22 00:22:12;;;;;;;8.23;4.30;;;;;;;14.89;100.00;101444.34;4976237;28;20544;-86
2023/06/22 00:24:37;;;;;;;4.93;3.73;;;;;;;14.83;100.00;101437.81;4976007;28;20204;-86
2023/06/22 00:27:05;;;;;;;6.50;4.10;;;;;;;14.81;100.00;101445.22;4984257;28;20034;-85
2023/06/22 00:29:30;;;;;;;5.63;3.95;;;;;;;14.67;100.00;101427.97;4968399;28;20037;-86
2023/06/22 00:31:56;;;;;;;6.30;4.20;;;;;;;14.70;100.00;101443.75;4968249;28;20113;-86
2023/06/22 00:34:21;;;;;;;5.90;3.97;;;;;;;14.56;100.00;101439.06;4982228;28;20042;-86
2023/06/22 00:36:46;;;;;;;5.50;4.13;;;;;;;14.54;100.00;101451.88;4974971;28;20153;-86
2023/06/22 00:39:13;;;;;;;7.20;4.00;;;;;;;14.52;100.00;101449.31;4991114;23;20042;-77
2023/06/22 00:41:38;;;;;;;6.18;4.22;;;;;;;14.50;100.00;101451.31;5000506;28;20572;-77
2023/06/22 00:44:04;;;;;;;8.20;3.83;;;;;;;14.47;100.00;101456.19;4994575;28;20120;-77
2023/06/22 00:46:30;;;;;;;;;;;;;;;14.48;100.00;101458.72;5035898;28;20059;-76
2023/06/22 00:48:57;;;;;;;;;;;;;;;14.46;100.00;101460.72;5039170;28;19952;-77
2023/06/22 00:51:24;;;;;;;;;;;;;;;14.45;100.00;101459.06;5035529;28;19913;-77
2023/06/22 00:53:51;;;;;;;5.68;3.90;;;;;;;14.36;100.00;101460.91;5010900;28;19923;-77
2023/06/22 00:56:19;;;;;;;6.55;3.85;;;;;;;14.39;100.00;101480.38;5001764;28;20048;-77
2023/06/22 00:58:47;;;;;;;6.90;3.95;;;;;;;14.32;100.00;101475.69;5018860;28;20087;-77
2023/06/22 01:01:13;;;;;;;9.27;5.28;;;;;;;14.31;100.00;101476.69;5011236;28;20076;-80
2023/06/22 01:03:39;;;;;;;8.77;4.18;;;;;;;14.28;100.00;101477.06;5018729;28;20040;-77
2023/06/22 01:06:15;;;;;;;5.17;3.83;;;;;;;14.35;100.00;101490.63;5014430;28;20017;-77
2023/06/22 01:08:53;;;;;;;5.93;4.70;;;;;;;14.32;100.00;101489.09;5028662;28;20033;-78
2023/06/22 01:11:28;;;;;;;5.95;4.57;;;;;;;14.33;100.00;101492.66;5012793;28;20041;-77
2023/06/22 01:14:15;;;;;;;6.72;4.45;;;;;;;14.30;100.00;101487.59;5010305;28;20041;-77
2023/06/22 01:16:43;;;;;;;7.28;4.63;;;;;;;14.29;100.00;101492.16;5007442;28;20044;-78
2023/06/22 01:19:41;;;;;;;5.80;3.70;;;;;;;14.29;100.00;101491.31;4994934;28;20028;-77
2023/06/22 01:22:12;;;;;;;7.50;5.03;;;;;;;14.21;100.00;101484.09;5001993;28;20226;-78
2023/06/22 01:25:09;;;;;;;5.22;4.13;;;;;;;14.19;100.00;101485.25;5016218;28;20182;-78
2023/06/22 01:27:41;;;;;;;4.68;3.53;;;;;;;14.21;100.00;101484.09;4967471;28;20045;-77
2023/06/22 01:30:10;;;;;;;7.63;4.25;;;;;;;14.23;100.00;101490.13;5013647;28;20060;-77
2023/06/22 01:32:38;;;;;;;7.22;4.70;;;;;;;14.24;100.00;101485.63;5013250;28;20119;-77
2023/06/22 01:35:05;;;;;;;8.57;4.35;;;;;;;14.23;100.00;101483.91;5019467;28;20045;-78
2023/06/22 01:37:33;;;;;;;10.18;4.43;;;;;;;14.20;100.00;101482.41;5017804;28;20032;-78
2023/06/22 01:39:59;;;;;;;7.63;4.50;;;;;;;14.21;100.00;101489.47;5027685;28;20036;-78
2023/06/22 01:42:28;;;;;;;6.93;4.28;;;;;;;14.17;100.00;101495.34;5016149;28;20032;-78
2023/06/22 01:44:55;;;;;;;5.90;4.60;;;;;;;14.22;100.00;101490.31;5038249;28;20497;-78
2023/06/22 01:47:22;;;;;;;7.25;4.32;;;;;;;14.21;100.00;101489.47;5011104;28;20027;-78
2023/06/22 01:49:51;;;;;;;5.18;4.00;;;;;;;14.19;100.00;101474.50;5021591;28;20486;-78
2023/06/22 01:52:17;;;;;;;6.68;4.55;;;;;;;14.13;100.00;101460.75;5008307;28;20025;-78
2023/06/22 01:54:42;;;;;;;9.65;4.38;;;;;;;14.17;100.00;101461.28;5015737;28;20049;-77
2023/06/22 01:57:09;;;;;;;6.60;4.53;;;;;;;14.13;100.00;101468.81;5024336;28;20029;-78
2023/06/22 01:59:42;;;;;;;;;;;;;;;14.16;100.00;101478.38;5013283;28;20029;-78
2023/06/22 02:02:10;;;;;;;5.40;3.90;;;;;;;14.13;100.00;101474.19;5001701;28;20004;-78
2023/06/22 02:04:42;;;;;;;5.53;4.10;;;;;;;14.09;100.00;101474.69;5016260;28;20107;-78
2023/06/22 02:07:12;;;;;;;8.93;4.90;;;;;;;14.08;100.00;101478.41;5003358;28;20108;-78
2023/06/22 02:09:40;;;;;;;5.88;4.22;;;;;;;14.06;100.00;101480.41;5017842;28;20474;-77
2023/06/22 02:12:08;;;;;;;8.32;4.47;;;;;;;14.04;100.00;101487.78;5015237;28;20033;-78
2023/06/22 02:14:35;;;;;;;9.00;4.38;;;;;;;14.07;100.00;101500.84;5015378;28;20075;-77
2023/06/22 02:17:00;;;;;;;7.43;4.57;;;;;;;14.03;100.00;101488.81;5012765;28;20502;-78
2023/06/22 02:19:26;;;;;;;6.87;4.43;;;;;;;14.06;100.00;101504.56;5025742;28;20033;-78
2023/06/22 02:21:52;;;;;;;9.60;4.65;;;;;;;14.01;100.00;101498.88;5018505;28;20135;-77
2023/06/22 02:24:23;;;;;;;6.55;4.60;;;;;;;14.03;100.00;101510.28;5031978;28;20090;-78
2023/06/22 02:26:49;;;;;;;6.40;4.35;;;;;;;14.00;100.00;101511.44;5017300;28;20056;-78
2023/06/22 02:29:14;;;;;;;8.13;4.35;;;;;;;13.92;100.00;101498.84;5029360;28;20029;-78
2023/06/22 02:31:41;;;;;;;6.72;4.75;;;;;;;13.93;100.00;101505.06;5027758;28;20123;-77
2023/06/22 02:34:10;;;;;;;7.70;4.63;;;;;;;13.98;100.00;101501.84;5019438;28;20124;-76
2023/06/22 02:36:35;;;;;;;7.93;4.25;;;;;;;13.90;100.00;101498.16;4998423;28;20076;-77
2023/06/22 02:39:01;;;;;;;5.20;4.20;;;;;;;13.90;100.00;101497.31;5018929;28;20045;-77
2023/06/22 02:41:27;;;;;;;8.70;4.38;;;;;;;13.93;100.00;101497.84;5013521;28;20040;-77
2023/06/22 02:43:55;;;;;;;6.47;5.05;;;;;;;13.96;100.00;101501.22;5033269;23;20047;-77
2023/06/22 02:46:21;;;;;;;10.63;5.50;;;;;;;13.98;100.00;101515.28;5029034;28;20041;-77
2023/06/22 02:48:47;;;;;;;8.50;4.57;;;;;;;14.02;100.00;101519.31;5018492;28;20025;-77
2023/06/22 02:51:13;;;;;;;8.20;5.90;;;;;;;14.02;100.00;101520.16;5028535;28;20088;-76
2023/06/22 02:53:38;;;;;;;8.20;5.60;;;;;;;14.02;100.00;101516.63;5015228;28;20029;-77
2023/06/22 02:56:06;;;;;;;6.03;4.13;;;;;;;13.97;100.00;101500.19;5015170;28;20032;-77
2023/06/22 02:58:38;;;;;;;6.28;4.38;;;;;;;13.94;100.00;101504.06;5020762;28;20021;-77
2023/06/22 03:01:06;;;;;;;8.50;4.65;;;;;;;13.98;100.00;101508.09;5010119;28;20270;-77
2023/06/22 03:03:32;;;;;;;8.02;5.00;;;;;;;14.00;100.00;101508.78;5012021;28;20116;-76
2023/06/22 03:05:57;;;;;;;5.37;4.10;;;;;;;14.02;100.00;101511.25;5009883;28;20036;-77
2023/06/22 03:08:23;;;;;;;7.63;5.13;;;;;;;14.07;100.00;101512.47;5006006;28;20120;-77
2023/06/22 03:10:49;;;;;;;8.85;5.45;;;;;;;14.07;100.00;101507.09;5014549;28;20124;-77
2023/06/22 03:13:16;;;;;;;11.98;6.60;;;;;;;14.17;100.00;101519.53;5003914;28;20112;-77
2023/06/22 03:15:42;;;;;;;10.00;6.93;;;;;;;14.33;100.00;101520.34;5017097;28;20039;-77
2023/06/22 03:18:07;;;;;;;10.13;6.73;;;;;;;14.50;100.00;101531.94;5016493;28;20038;-77
2023/06/22 03:20:33;;;;;;;12.20;6.20;;;;;;;14.59;100.00;101515.84;5011851;28;20029;-77
2023/06/22 03:22:59;;;;;;;10.48;6.85;;;;;;;14.64;100.00;101517.00;5001621;28;20038;-77
2023/06/22 03:25:24;;;;;;;10.68;7.25;;;;;;;14.64;100.00;101506.25;5012974;28;20041;-78
2023/06/22 03:27:50;;;;;;;9.83;5.93;;;;;;;14.69;100.00;101508.44;5006239;28;20261;-77
2023/06/22 03:30:15;;;;;;;14.77;6.97;;;;;;;14.73;100.00;101513.28;5010167;28;20057;-76
2023/06/22 03:32:41;;;;;;;10.43;6.00;;;;;;;14.77;100.00;101506.56;5008864;28;20041;-77
2023/06/22 03:35:06;;;;;;;9.93;6.40;;;;;;;14.88;100.00;101512.56;5008360;28;20025;-77
2023/06/22 03:37:34;;;;;;;10.30;6.75;;;;;;;14.86;100.00;101507.34;5007640;28;20281;-77
2023/06/22 03:39:59;;;;;;;15.15;7.38;;;;;;;14.93;100.00;101515.59;5024393;28;20018;-77
2023/06/22 03:42:25;;;;;;;12.10;7.23;;;;;;;14.98;100.00;101527.50;5010983;28;20551;-76
2023/06/22 03:44:51;;;;;;;11.93;6.57;;;;;;;15.01;100.00;101534.41;5020849;28;20033;-76
2023/06/22 03:47:17;;;;;;;12.03;6.73;;;;;;;15.10;100.00;101536.06;5021856;28;20051;-77
2023/06/22 03:49:43;;;;;;;11.65;6.85;;;;;;;15.13;100.00;101533.00;5014528;28;20083;-77
2023/06/22 03:52:09;;;;;;;11.60;7.83;;;;;;;15.13;100.00;101511.50;5027354;28;20037;-77
2023/06/22 03:54:34;;;;;;;9.52;6.57;;;;;;;15.25;100.00;101508.44;5042304;28;20088;-77
2023/06/22 03:56:59;;;;;;;8.90;5.30;;;;;;;15.28;100.00;101513.44;5020005;28;20117;-78
2023/06/22 03:59:25;;;;;;;8.53;5.13;;;;;;;15.35;100.00;101511.72;5019479;28;20036;-77
2023/06/22 04:01:50;;;;;;;9.82;5.15;;;;;;;15.33;100.00;101511.06;5012468;28;20119;-77
2023/06/22 04:04:18;;;;;;;9.97;6.20;;;;;;;15.38;100.00;101514.91;5021622;28;20118;-76
2023/06/22 04:06:43;;;;;;;8.25;4.80;;;;;;;15.35;100.00;101504.50;5028950;28;20494;-77
2023/06/22 04:09:09;;;;;;;8.10;5.23;;;;;;;15.44;100.00;101505.31;5008042;28;20052;-77
2023/06/22 04:11:34;;;;;;;7.87;5.47;;;;;;;15.60;100.00;101499.00;5009177;28;20044;-78
2023/06/22 04:14:02;;;;;;;10.77;5.40;;;;;;;15.60;100.00;101493.63;5037537;28;20083;-77
2023/06/22 04:16:28;;;;;;;6.53;4.90;;;;;;;15.74;100.00;101513.59;5017210;28;20026;-77
2023/06/22 04:18:53;;;;;;;11.23;5.40;;;;;;;15.79;100.00;101500.41;5005148;28;20103;-78
2023/06/22 04:21:21;;;;;;;6.27;4.10;;;;;;;15.91;100.00;101506.22;5026549;28;20071;-77
2023/06/22 04:23:47;;;;;;;6.18;4.05;;;;;;;15.98;100.00;101494.56;5026737;28;20024;-78
2023/06/22 04:26:14;;;;;;;10.67;5.03;;;;;;;16.15;100.00;101500.66;5019549;28;20398;-78
2023/06/22 04:28:40;;;;;;;9.70;5.60;;;;;;;16.19;100.00;101474.19;5024474;28;20374;-77
2023/06/22 04:31:05;;;;;;;6.95;5.28;;;;;;;16.28;100.00;101462.31;5046273;28;20055;-78
2023/06/22 04:33:31;;;;;;;13.60;6.10;;;;;;;16.45;100.00;101453.03;5032576;28;20043;-77
2023/06/22 04:36:01;;;;;;;10.23;5.80;;;;;;;16.67;100.00;101445.09;5030443;28;20036;-77
2023/06/22 04:38:26;;;;;;;11.93;5.82;;;;;;;16.87;100.00;101432.72;5021687;28;20310;-77
2023/06/22 04:40:53;;;;;;;8.50;5.70;;;;;;;16.97;100.00;101399.25;5032498;28;20080;-77
2023/06/22 04:43:18;;;;;;;;;;;;;;;17.08;100.00;101391.50;5035014;28;20040;-77
2023/06/22 04:45:43;;;;;;;9.75;6.15;;;;;;;17.06;100.00;101371.13;5019727;28;19919;-77
2023/06/22 04:48:09;;;;;;;9.20;4.50;;;;;;;17.17;100.00;101370.66;5032963;28;20038;-77
2023/06/22 04:50:37;;;;;;;8.65;5.15;;;;;;;17.32;100.00;101372.44;5022589;28;20044;-77
2023/06/22 04:53:05;;;;;;;8.70;4.47;;;;;;;17.44;100.00;101366.38;5026624;28;20414;-77
2023/06/22 04:55:31;;;;;;;5.57;4.30;;;;;;;17.61;100.00;101350.75;5022231;28;20059;-77
2023/06/22 04:58:00;;;;;;;;;;;;;;;17.76;100.00;101339.00;5021653;28;20448;-78
2023/06/22 05:00:26;;;;;;;8.73;5.50;;;;;;;17.73;100.00;101326.75;5033531;28;19996;-77
2023/06/22 05:02:51;;;;;;;11.20;5.72;;;;;;;17.81;100.00;101334.72;5051194;28;20120;-78
2023/06/22 05:05:17;;;;;;;13.97;7.37;;;;;;;18.01;100.00;101344.84;5009188;28;20036;-77
2023/06/22 05:07:44;;;;;;;10.30;6.32;;;;;;;18.26;100.00;101346.06;5056692;28;20123;-77
2023/06/22 05:10:13;;;;;;;15.15;6.72;;;;;;;18.31;100.00;101323.84;5018865;28;20032;-77
2023/06/22 05:12:39;;;;;;;10.45;6.60;;;;;;;18.52;100.00;101320.22;5034822;28;20100;-77
2023/06/22 05:15:06;;;;;;;9.57;5.95;;;;;;;18.42;100.00;101257.53;5025228;28;20025;-77
2023/06/22 05:17:32;;;;;;;9.07;5.57;;;;;;;18.59;100.00;101247.19;5033803;28;20043;-78
2023/06/22 05:19:57;;;;;;;8.67;5.27;;;;;;;19.05;100.00;101290.63;5022195;28;20487;-78
2023/06/22 05:22:22;;;;;;;7.90;5.70;;;;;;;19.07;100.00;101212.78;5033434;28;20083;-79
2023/06/22 05:24:48;;;;;;;7.83;5.43;;;;;;;19.19;100.00;101164.28;5035076;28;20032;-77
2023/06/22 05:27:16;;;;;;;9.47;6.27;;;;;;;19.55;100.00;101179.22;5022341;28;20045;-77
2023/06/22 05:29:42;;;;;;;9.80;5.85;;;;;;;19.74;100.00;101156.72;5026049;28;20071;-78
2023/06/22 05:32:08;;;;;;;9.23;6.18;;;;;;;19.74;100.00;101116.09;5034802;28;20064;-78
2023/06/22 05:34:33;;;;;;;8.32;4.72;;;;;;;19.87;100.00;101052.88;5036039;28;20047;-77
2023/06/22 05:36:59;;;;;;;10.45;5.88;;;;;;;19.94;100.00;100982.41;5018726;28;20063;-78
2023/06/22 05:39:25;;;;;;;7.15;4.50;;;;;;;20.27;100.00;100984.84;5018212;28;20113;-77
2023/06/22 05:41:51;;;;;;;12.82;5.65;;;;;;;20.78;100.00;100940.41;5041333;28;20060;-77
2023/06/22 05:44:20;;;;;;;13.38;6.07;;;;;;;21.07;100.00;100797.69;5032672;28;20041;-78
2023/06/22 05:46:46;;;;;;;6.97;3.55;;;;;;;21.81;100.00;100734.88;5025683;28;20032;-77
2023/06/22 05:49:15;;;;;;;6.30;4.13;;;;;;;21.40;100.00;100670.63;5042256;28;20525;-78
2023/06/22 05:51:41;;;;;;;6.22;3.78;;;;;;;21.33;100.00;100645.44;5020616;28;20131;-78
2023/06/22 05:54:08;;;;;;;7.68;3.90;;;;;;;21.72;100.00;100652.06;5026590;28;20026;-78
2023/06/22 05:56:34;;;;;;;5.40;3.33;;;;;;;22.64;100.00;100599.50;5022387;28;20032;-77
2023/06/22 05:58:59;;;;;;;6.18;3.95;;;;;;;23.52;100.00;100531.66;5022896;28;20031;-77
2023/06/22 06:01:25;;;;;;;4.40;3.40;;;;;;;24.00;94.33;100412.00;5032591;28;20060;-78
2023/06/22 06:03:52;;;;;;;6.80;4.82;;;;;;;24.08;90.47;100309.78;5034088;28;20039;-78
2023/06/22 06:06:20;;;;;;;5.35;3.15;;;;;;;23.53;89.04;100271.75;5033323;28;20040;-77
2023/06/22 06:08:46;;;;;;;14.95;5.20;;;;;;;23.39;87.46;100224.25;5034399;28;20207;-77
2023/06/22 06:11:12;;;;;;;3.95;3.05;;;;;;;23.38;84.85;100141.69;5034468;28;20410;-79
2023/06/22 06:13:37;;;;;;;5.80;3.60;;;;;;;23.70;84.55;100281.69;5035475;28;20119;-79
2023/06/22 06:16:03;;;;;;;3.22;2.65;;;;;;;24.46;83.10;100393.22;5054716;28;20288;-78
2023/06/22 06:18:28;;;;;;;5.55;2.95;;;;;;;24.84;79.97;100273.88;5033670;28;20090;-77
2023/06/22 06:20:53;;;;;;;3.80;2.97;;;;;;;24.85;78.79;100273.63;5033747;28;20211;-78
2023/06/22 06:23:19;;;;;;;2.53;2.20;;;;;;;24.88;76.72;100198.53;5050983;28;20279;-77
2023/06/22 06:25:44;;;;;;;5.47;2.92;;;;;;;24.63;72.95;99980.97;5051535;28;20048;-77
2023/06/22 06:28:10;;;;;;;3.40;2.63;;;;;;;25.22;73.52;100239.84;5049547;28;20478;-78
2023/06/22 06:30:37;;;;;;;5.15;3.67;;;;;;;25.33;71.34;100133.28;5053196;28;20485;-78
2023/06/22 06:33:02;;;;;;;4.93;3.25;;;;;;;25.86;71.22;100286.84;5051226;28;20039;-79
2023/06/22 06:35:28;;;;;;;8.38;3.72;;;;;;;26.22;70.18;100301.31;5022215;28;20036;-77
2023/06/22 06:37:53;;;;;;;7.43;3.65;;;;;;;26.07;69.64;100284.91;5019017;28;20477;-77
2023/06/22 06:40:19;;;;;;;5.22;3.65;;;;;;;26.05;68.26;100192.19;5019734;28;20140;-78
2023/06/22 06:42:48;;;;;;;;;;;;;;;25.74;67.10;100048.47;5035916;28;20122;-78
2023/06/22 06:45:17;;;;;;;6.22;2.60;;;;;;;25.75;68.17;100261.41;5016443;28;20011;-77
2023/06/22 06:47:43;;;;;;;5.93;3.10;;;;;;;24.97;68.58;100142.31;4999828;28;20025;-78
2023/06/22 06:50:09;;;;;;;4.28;3.30;;;;;;;24.97;69.76;100305.31;5005609;28;20029;-78
2023/06/22 06:52:35;;;;;;;4.82;3.38;;;;;;;25.49;68.07;100274.28;5028616;28;20090;-76
2023/06/22 06:55:00;;;;;;;6.20;3.30;;;;;;;25.81;67.91;100344.25;5007286;28;20266;-77
2023/06/22 06:57:28;;;;;;;3.93;2.87;;;;;;;25.63;68.24;100332.75;5023628;28;20031;-76
2023/06/22 06:59:56;;;;;;;8.73;3.45;;;;;;;26.11;67.73;100415.41;5041046;28;20306;-76
2023/06/22 07:02:21;;;;;;;4.50;2.88;;;;;;;25.81;65.45;100169.28;5033713;28;20025;-77
2023/06/22 07:04:47;;;;;;;7.38;2.70;;;;;;;26.32;64.45;100156.25;5018595;28;20037;-76
2023/06/22 07:07:12;;;;;;;;;;;;;;;27.66;61.95;100300.56;5009032;28;20656;-78
2023/06/22 07:09:37;;;;;;;7.43;2.90;;;;;;;27.83;60.72;100173.97;5020393;28;20332;-77
2023/06/22 07:12:03;;;;;;;11.02;3.22;;;;;;;26.97;61.77;100077.78;5022843;28;20087;-77
2023/06/22 07:14:29;;;;;;;;;;;;;;;26.02;59.85;99621.19;5020267;28;20034;-78
2023/06/22 07:16:54;;;;;;;5.50;2.27;;;;;;;25.95;61.98;99978.94;4991720;28;19916;-78
2023/06/22 07:19:27;;;;;;;5.93;2.45;;;;;;;26.22;62.56;100093.38;5027975;28;20282;-77
2023/06/22 07:21:53;;;;;;;8.82;2.95;;;;;;;27.09;61.50;100215.19;5010205;28;20041;-77
2023/06/22 07:24:22;;;;;;;6.20;2.85;;;;;;;26.85;60.11;99955.75;5025507;28;20017;-77
2023/06/22 07:26:49;;;;;;;6.10;3.13;;;;;;;26.65;60.60;99991.56;5016884;28;20025;-76
2023/06/22 07:29:16;;;;;;;3.80;2.50;;;;;;;27.00;60.55;100118.31;5037401;28;20024;-78
2023/06/22 07:31:42;;;;;;;10.07;3.00;;;;;;;27.14;60.11;100081.75;5029124;28;20099;-78
2023/06/22 07:34:07;;;;;;;9.95;3.15;;;;;;;27.27;59.24;100063.81;5017468;28;20049;-78
2023/06/22 07:36:32;;;;;;;;;;;;;;;27.31;59.28;100023.78;5003556;28;20036;-78
2023/06/22 07:38:58;;;;;;;7.87;3.13;;;;;;;26.79;59.85;99995.25;5015513;28;19909;-78
2023/06/22 07:41:23;;;;;;;;;;;;;;;26.89;58.61;99899.31;4994503;28;20033;-77
2023/06/22 07:43:49;;;;;;;5.47;2.30;;;;;;;26.82;57.52;99726.34;5018729;28;19913;-78
2023/06/22 07:46:15;;;;;;;;;;;;;;;25.99;58.14;99610.84;5025772;28;20072;-76
2023/06/22 07:48:41;;;;;;;12.20;2.90;;;;;;;26.84;59.11;100077.34;5009614;28;19967;-78
2023/06/22 07:51:07;;;;;;;4.47;2.55;;;;;;;27.28;58.06;100038.06;4999724;28;20479;-78
2023/06/22 07:53:32;;;;;;;5.15;2.30;;;;;;;27.61;57.70;100117.72;5006843;28;20115;-78
2023/06/22 07:55:57;;;;;;;;;;;;;;;27.44;58.41;100098.16;5016115;28;20033;-78
2023/06/22 07:58:23;;;;;;;5.90;2.13;;;;;;;27.36;57.62;99971.63;5008495;28;20424;-78
2023/06/22 08:00:49;;;;;;;;;;;;;;;26.97;57.06;99754.59;5035091;28;20040;-78
2023/06/22 08:03:14;;;;;;;6.55;2.47;;;;;;;27.26;57.15;99951.78;5025790;28;19991;-77
2023/06/22 08:05:40;;;;;;;4.15;2.60;;;;;;;26.65;55.93;99597.38;5019696;28;20042;-76
2023/06/22 08:08:05;;;;;;;;;;;;;;;25.34;58.88;99624.09;5010425;28;20053;-76
2023/06/22 08:10:30;;;;;;;5.07;3.13;;;;;;;24.66;59.24;99483.00;5024501;28;19924;-79
2023/06/22 08:12:56;;;;;;;4.93;2.93;;;;;;;22.78;64.09;99658.50;5036950;28;20017;-78
2023/06/22 08:15:21;;;;;;;3.93;2.67;;;;;;;24.01;63.97;100049.09;5027149;28;20771;-77
2023/06/22 08:17:47;;;;;;;3.33;2.47;;;;;;;23.77;63.54;99931.56;5016957;28;20036;-78
2023/06/22 08:20:12;;;;;;;7.13;2.60;;;;;;;24.44;64.34;100216.16;5037827;28;20040;-77
2023/06/22 08:22:39;;;;;;;5.95;2.30;;;;;;;25.19;63.29;100264.16;5011336;28;20514;-77
2023/06/22 08:25:06;;;;;;;3.83;2.67;;;;;;;25.61;63.08;100310.34;4995321;28;20379;-79
2023/06/22 08:27:31;;;;;;;;;;;;;;;25.96;62.48;100333.34;5016950;28;20032;-79
2023/06/22 08:30:00;;;;;;;4.20;2.35;;;;;;;26.17;61.03;100144.56;5014695;28;19917;-78
2023/06/22 08:32:28;;;;;;;4.13;2.45;;;;;;;26.79;59.57;100206.09;5042783;28;20052;-77
2023/06/22 08:34:57;;;;;;;10.38;2.83;;;;;;;26.57;58.56;99983.97;5019118;28;20029;-77
2023/06/22 08:37:35;;;;;;;5.68;2.42;;;;;;;27.36;59.25;100351.78;5004910;28;20029;-78
2023/06/22 08:40:03;;;;;;;3.47;2.00;;;;;;;27.40;56.26;99993.00;5018609;28;20042;-77
2023/06/22 08:42:29;;;;;;;4.68;2.38;;;;;;;27.41;55.05;99816.47;5000674;28;20021;-77
2023/06/22 08:44:55;;;;;;;3.87;1.80;;;;;;;26.89;54.26;99600.81;5022175;28;20617;-77
2023/06/22 08:47:21;;;;;;;;;;;;;;;25.33;54.82;99235.38;5015867;28;20282;-78
2023/06/22 08:49:47;;;;;;;4.25;1.70;;;;;;;26.26;53.91;99486.28;5018169;28;19916;-76
2023/06/22 08:52:12;;;;;;;3.90;2.20;;;;;;;26.84;52.17;99389.28;5030594;28;20389;-78
2023/06/22 08:54:37;;;;;;;2.15;1.92;;;;;;;27.36;50.63;99371.50;5033673;28;20119;-78
2023/06/22 08:57:03;;;;;;;2.37;1.87;;;;;;;27.33;50.21;99251.56;5019435;28;20025;-77
2023/06/22 08:59:29;;;;;;;2.35;2.03;;;;;;;28.11;49.66;99473.47;5032616;28;20287;-77
2023/06/22 09:01:54;;;;;;;;;;;;;;;28.56;49.52;99574.28;5024384;28;20035;-76
2023/06/22 09:04:21;;;;;;;5.77;2.10;;;;;;;27.75;48.34;99065.75;5047853;28;19912;-77
2023/06/22 09:06:47;;;;;;;3.25;2.30;;;;;;;28.72;48.68;99559.06;5018389;28;20029;-76
2023/06/22 09:09:14;;;;;;;2.22;2.03;;;;;;;29.19;46.96;99427.63;5029247;28;20124;-78
2023/06/22 09:11:40;;;;;;;4.47;2.35;;;;;;;28.34;47.46;99210.06;5049141;28;20033;-76
2023/06/22 09:14:08;;;;;;;2.13;1.80;;;;;;;27.92;47.74;99160.19;5027873;28;20034;-78
2023/06/22 09:16:34;;;;;;;3.80;2.50;;;;;;;27.06;48.50;98936.66;5017368;28;20025;-77
2023/06/22 09:19:00;;;;;;;2.67;1.85;;;;;;;26.11;50.15;98885.72;5020099;28;20033;-78
2023/06/22 09:21:25;;;;;;;3.90;2.33;;;;;;;27.28;50.35;99516.63;5015122;28;20063;-77
2023/06/22 09:23:51;;;;;;;3.53;2.40;;;;;;;28.20;49.26;99608.00;5030157;28;20052;-77
2023/06/22 09:26:20;;;;;;;2.97;1.88;;;;;;;26.04;50.88;98987.31;5033271;28;20124;-76
2023/06/22 09:28:46;;;;;;;3.30;2.58;;;;;;;27.24;51.73;99700.00;5020628;28;20043;-77
2023/06/22 09:31:12;;;;;;;3.15;2.10;;;;;;;27.66;50.63;99642.53;5010737;28;20548;-78
2023/06/22 09:33:40;;;;;;;2.00;1.70;;;;;;;28.32;48.16;99462.03;5016359;28;20021;-77
2023/06/22 09:36:07;;;;;;;4.40;2.10;;;;;;;28.98;48.25;99665.56;5017821;28;20033;-77
2023/06/22 09:38:41;;;;;;;5.30;2.50;;;;;;;29.38;46.53;99534.56;5018436;28;20037;-78
2023/06/22 09:41:07;;;;;;;3.38;1.88;;;;;;;29.52;47.46;99713.16;5027971;28;20418;-76
2023/06/22 09:43:35;;;;;;;2.20;2.00;;;;;;;27.41;48.08;98984.19;5031700;28;20036;-76
2023/06/22 09:46:01;;;;;;;3.22;2.17;;;;;;;28.64;48.95;99652.38;5019927;28;20083;-78
2023/06/22 09:48:28;;;;;;;2.75;2.00;;;;;;;29.43;47.62;99702.13;5033372;28;20087;-78
2023/06/22 09:50:53;;;;;;;2.53;1.73;;;;;;;29.73;46.53;99619.97;5015200;28;20458;-77
2023/06/22 09:53:19;;;;;;;1.80;1.38;;;;;;;29.44;46.66;99491.25;5046967;28;20129;-79
2023/06/22 09:55:44;;;;;;;2.33;1.80;;;;;;;28.50;47.46;99344.97;5011862;28;20045;-77
2023/06/22 09:58:10;;;;;;;3.97;1.90;;;;;;;29.52;46.84;99638.13;5006313;28;20117;-79
2023/06/22 10:00:35;;;;;;;;;;;;;;;29.65;46.24;99508.78;5003176;28;20453;-78
2023/06/22 10:03:00;;;;;;;6.10;2.07;;;;;;;30.32;45.88;99657.41;5011148;28;20722;-76
2023/06/22 10:05:25;;;;;;;;;;;;;;;30.14;44.92;99436.38;5013488;28;20292;-80
2023/06/22 10:07:51;;;;;;;3.37;1.73;;;;;;;30.48;44.18;99430.00;5029793;28;19930;-77
2023/06/22 10:10:16;;;;;;;;;;;;;;;30.65;44.01;99473.25;5028842;28;20697;-75
2023/06/22 10:12:45;;;;;;;4.87;2.17;;;;;;;30.53;43.27;99250.03;5029911;28;19975;-75
2023/06/22 10:15:11;;;;;;;2.78;1.92;;;;;;;30.46;43.44;99334.00;5006580;28;20283;-77
2023/06/22 10:17:36;;;;;;;;;;;;;;;30.93;43.00;99346.94;5014480;28;20115;-75
2023/06/22 10:20:07;;;;;;;2.60;1.65;;;;;;;31.18;42.77;99424.28;5029824;28;20044;-76
2023/06/22 10:22:32;;;;;;;5.90;2.05;;;;;;;30.46;42.62;99119.22;5009398;28;20044;-79
2023/06/22 10:24:57;;;;;;;;;;;;;;;31.03;42.67;99396.16;5020517;28;20021;-78
2023/06/22 10:27:22;;;;;;;3.50;2.17;;;;;;;31.09;42.48;99339.72;5003172;28;19916;-78
2023/06/22 10:29:48;;;;;;;;;;;;;;;31.09;41.88;99185.38;5009639;28;20053;-79
2023/06/22 10:32:13;;;;;;;2.57;1.83;;;;;;;30.73;42.76;99270.53;5006120;28;20415;-77
2023/06/22 10:34:38;;;;;;;;;;;;;;;30.69;42.81;99232.59;5014795;28;20371;-77
2023/06/22 10:37:04;;;;;;;6.33;2.33;;;;;;;31.02;41.31;99138.22;5049147;28;19999;-77
2023/06/22 10:39:29;;;;;;;2.92;2.10;;;;;;;30.86;42.08;99160.13;5025335;28;20406;-77
2023/06/22 10:41:56;;;;;;;;;;;;;;;30.62;42.24;99049.78;5039394;28;20482;-78
2023/06/22 10:44:21;;;;;;;5.47;1.60;;;;;;;31.10;41.26;99145.63;5019035;28;20083;-74
2023/06/22 10:46:46;;;;;;;;;;;;;;;31.35;40.17;98988.56;5042293;28;20029;-74
2023/06/22 10:49:12;;;;;;;;;;;;;;;32.01;40.45;99288.38;5010658;28;19921;-78
2023/06/22 10:51:37;;;;;;;;;;;;;;;32.20;40.21;99287.81;5007292;28;20346;-76
2023/06/22 10:54:04;;;;;;;4.77;2.00;;;;;;;32.20;39.55;99147.03;5028904;28;19925;-79
2023/06/22 10:56:29;;;;;;;2.28;1.40;;;;;;;32.26;39.39;99195.31;5019700;28;20032;-79
2023/06/22 10:58:54;;;;;;;;;;;;;;;31.50;39.38;98841.75;5027779;28;20035;-77
2023/06/22 11:01:20;;;;;;;;;;;;;;;32.03;39.09;98990.75;5033900;28;20282;-76
2023/06/22 11:03:45;;;;;;;2.65;1.73;;;;;;;32.02;38.72;98955.22;5030175;28;20486;-76
2023/06/22 11:06:11;;;;;;;;;;;;;;;31.80;39.00;98951.81;5030117;28;20096;-76
2023/06/22 11:08:36;;;;;;;;;;;;;;;31.53;38.87;98760.28;5029595;28;19920;-75
2023/06/22 11:11:01;;;;;;;2.83;1.80;;;;;;;31.84;39.74;99103.63;5046972;28;20280;-75
2023/06/22 11:13:27;;;;;;;;;;;;;;;32.38;39.72;99258.84;5030258;28;20478;-76
2023/06/22 11:15:52;;;;;;;2.47;1.85;;;;;;;31.95;39.11;99035.81;5046251;28;20424;-75
2023/06/22 11:18:17;;;;;;;;;;;;;;;32.58;38.98;99179.81;5021043;28;20393;-76
2023/06/22 11:20:42;;;;;;;;;;;;;;;28.71;41.04;98076.81;5036489;28;19919;-76
2023/06/22 11:23:08;;;;;;;2.60;2.13;;;;;;;30.54;42.75;99238.72;5013228;28;19915;-78
2023/06/22 11:25:38;;;;;;;;;;;;;;;31.47;40.36;99089.84;5013667;28;20045;-77
2023/06/22 11:28:04;;;;;;;2.97;2.42;;;;;;;31.86;39.51;99126.19;5044868;28;20016;-77